sensor_id;sensor_type;location;lat;lon;timestamp;P1;durP1;ratioP1;P2;durP2;ratioP2
19004;SDS011;9635;52.078;8.648;2022-12-07T00:03:40;39.55;;;22.95;;
19004;SDS011;9635;52.078;8.648;2022-12-07T00:08:47;47.47;;;26.92;;
19004;SDS011;9635;52.078;8.648;2022-12-07T00:13:52;58.10;;;32.40;;
19004;SDS011;9635;52.078;8.648;2022-12-07T00:18:56;59.92;;;30.15;;
19004;SDS011;9635;52.078;8.648;2022-12-07T00:24:00;62.00;;;30.90;;
19004;SDS011;9635;52.078;8.648;2022-12-07T00:29:06;69.93;;;32.60;;
19004;SDS011;9635;52.078;8.648;2022-12-07T00:34:13;73.85;;;35.20;;
19004;SDS011;9635;52.078;8.648;2022-12-07T00:39:17;73.47;;;36.53;;
19004;SDS011;9635;52.078;8.648;2022-12-07T00:44:22;82.70;;;36.53;;
19004;SDS011;9635;52.078;8.648;2022-12-07T00:49:25;67.85;;;35.08;;
19004;SDS011;9635;52.078;8.648;2022-12-07T00:54:28;63.38;;;29.48;;
19004;SDS011;9635;52.078;8.648;2022-12-07T00:59:32;60.13;;;30.30;;
19004;SDS011;9635;52.078;8.648;2022-12-07T01:04:35;71.15;;;31.63;;
19004;SDS011;9635;52.078;8.648;2022-12-07T01:09:37;65.28;;;31.80;;
19004;SDS011;9635;52.078;8.648;2022-12-07T01:14:42;63.78;;;31.45;;
19004;SDS011;9635;52.078;8.648;2022-12-07T01:19:45;52.28;;;24.92;;
19004;SDS011;9635;52.078;8.648;2022-12-07T01:24:48;45.03;;;23.77;;
19004;SDS011;9635;52.078;8.648;2022-12-07T01:29:52;44.75;;;20.95;;
19004;SDS011;9635;52.078;8.648;2022-12-07T01:34:55;50.17;;;25.88;;
19004;SDS011;9635;52.078;8.648;2022-12-07T01:39:58;47.78;;;24.80;;
19004;SDS011;9635;52.078;8.648;2022-12-07T01:50:41;44.42;;;22.58;;
19004;SDS011;9635;52.078;8.648;2022-12-07T01:55:45;49.92;;;24.08;;
19004;SDS011;9635;52.078;8.648;2022-12-07T02:00:52;43.78;;;22.10;;
19004;SDS011;9635;52.078;8.648;2022-12-07T02:05:56;39.10;;;21.08;;
19004;SDS011;9635;52.078;8.648;2022-12-07T02:11:00;42.35;;;23.02;;
19004;SDS011;9635;52.078;8.648;2022-12-07T02:16:09;44.40;;;22.05;;
19004;SDS011;9635;52.078;8.648;2022-12-07T02:21:23;39.65;;;22.23;;
19004;SDS011;9635;52.078;8.648;2022-12-07T02:26:47;38.28;;;21.05;;
19004;SDS011;9635;52.078;8.648;2022-12-07T02:32:13;41.65;;;21.13;;
19004;SDS011;9635;52.078;8.648;2022-12-07T02:37:25;39.58;;;20.50;;
19004;SDS011;9635;52.078;8.648;2022-12-07T02:42:36;30.50;;;14.95;;
19004;SDS011;9635;52.078;8.648;2022-12-07T02:47:44;40.22;;;18.77;;
19004;SDS011;9635;52.078;8.648;2022-12-07T02:52:50;37.83;;;17.05;;
19004;SDS011;9635;52.078;8.648;2022-12-07T02:57:55;32.70;;;16.00;;
19004;SDS011;9635;52.078;8.648;2022-12-07T03:03:10;35.60;;;17.08;;
19004;SDS011;9635;52.078;8.648;2022-12-07T03:08:19;32.20;;;16.38;;
19004;SDS011;9635;52.078;8.648;2022-12-07T03:13:33;35.45;;;16.15;;
19004;SDS011;9635;52.078;8.648;2022-12-07T03:18:45;35.83;;;13.77;;
19004;SDS011;9635;52.078;8.648;2022-12-07T03:23:53;29.75;;;13.30;;
19004;SDS011;9635;52.078;8.648;2022-12-07T03:28:59;26.17;;;14.45;;
19004;SDS011;9635;52.078;8.648;2022-12-07T03:34:10;31.35;;;14.55;;
19004;SDS011;9635;52.078;8.648;2022-12-07T03:39:19;30.17;;;14.02;;
19004;SDS011;9635;52.078;8.648;2022-12-07T03:44:26;30.80;;;14.70;;
19004;SDS011;9635;52.078;8.648;2022-12-07T03:49:32;30.92;;;13.68;;
19004;SDS011;9635;52.078;8.648;2022-12-07T03:54:44;35.58;;;14.85;;
19004;SDS011;9635;52.078;8.648;2022-12-07T03:59:53;27.45;;;13.63;;
19004;SDS011;9635;52.078;8.648;2022-12-07T04:04:59;28.88;;;15.13;;
19004;SDS011;9635;52.078;8.648;2022-12-07T04:10:02;26.67;;;13.65;;
19004;SDS011;9635;52.078;8.648;2022-12-07T04:15:07;38.72;;;16.15;;
19004;SDS011;9635;52.078;8.648;2022-12-07T04:20:12;26.00;;;14.13;;
19004;SDS011;9635;52.078;8.648;2022-12-07T04:25:15;26.35;;;13.77;;
19004;SDS011;9635;52.078;8.648;2022-12-07T04:30:18;30.88;;;14.48;;
19004;SDS011;9635;52.078;8.648;2022-12-07T04:35:22;20.90;;;10.70;;
19004;SDS011;9635;52.078;8.648;2022-12-07T04:40:25;28.20;;;14.82;;
19004;SDS011;9635;52.078;8.648;2022-12-07T04:45:28;28.83;;;13.98;;
19004;SDS011;9635;52.078;8.648;2022-12-07T04:50:32;23.80;;;12.15;;
19004;SDS011;9635;52.078;8.648;2022-12-07T04:55:35;24.63;;;13.15;;
19004;SDS011;9635;52.078;8.648;2022-12-07T05:00:38;22.98;;;11.25;;
19004;SDS011;9635;52.078;8.648;2022-12-07T05:05:43;23.17;;;11.05;;
19004;SDS011;9635;52.078;8.648;2022-12-07T05:10:46;26.13;;;12.80;;
19004;SDS011;9635;52.078;8.648;2022-12-07T05:15:50;26.10;;;12.20;;
19004;SDS011;9635;52.078;8.648;2022-12-07T05:20:54;23.70;;;10.93;;
19004;SDS011;9635;52.078;8.648;2022-12-07T05:25:57;23.05;;;9.50;;
19004;SDS011;9635;52.078;8.648;2022-12-07T05:31:00;21.48;;;9.30;;
19004;SDS011;9635;52.078;8.648;2022-12-07T05:36:04;26.27;;;11.10;;
19004;SDS011;9635;52.078;8.648;2022-12-07T05:41:08;22.05;;;9.55;;
19004;SDS011;9635;52.078;8.648;2022-12-07T05:46:35;25.55;;;11.85;;
19004;SDS011;9635;52.078;8.648;2022-12-07T05:51:39;20.42;;;8.88;;
19004;SDS011;9635;52.078;8.648;2022-12-07T05:56:42;23.15;;;10.63;;
19004;SDS011;9635;52.078;8.648;2022-12-07T06:01:44;19.10;;;9.80;;
19004;SDS011;9635;52.078;8.648;2022-12-07T06:06:49;21.73;;;9.60;;
19004;SDS011;9635;52.078;8.648;2022-12-07T06:11:52;21.95;;;11.15;;
19004;SDS011;9635;52.078;8.648;2022-12-07T06:17:12;24.88;;;11.25;;
19004;SDS011;9635;52.078;8.648;2022-12-07T06:22:17;23.50;;;11.20;;
19004;SDS011;9635;52.078;8.648;2022-12-07T06:27:20;20.42;;;10.05;;
19004;SDS011;9635;52.078;8.648;2022-12-07T06:32:23;24.58;;;10.35;;
19004;SDS011;9635;52.078;8.648;2022-12-07T06:37:27;18.52;;;10.43;;
19004;SDS011;9635;52.078;8.648;2022-12-07T06:42:30;25.05;;;10.40;;
19004;SDS011;9635;52.078;8.648;2022-12-07T06:47:33;16.42;;;9.60;;
19004;SDS011;9635;52.078;8.648;2022-12-07T06:52:48;20.52;;;9.43;;
19004;SDS011;9635;52.078;8.648;2022-12-07T06:57:52;18.95;;;10.07;;
19004;SDS011;9635;52.078;8.648;2022-12-07T07:02:55;27.35;;;10.80;;
19004;SDS011;9635;52.078;8.648;2022-12-07T07:07:59;21.02;;;10.30;;
19004;SDS011;9635;52.078;8.648;2022-12-07T07:13:22;16.48;;;8.98;;
19004;SDS011;9635;52.078;8.648;2022-12-07T07:18:25;26.65;;;11.95;;
19004;SDS011;9635;52.078;8.648;2022-12-07T07:23:30;20.33;;;10.82;;
19004;SDS011;9635;52.078;8.648;2022-12-07T07:28:33;20.40;;;9.80;;
19004;SDS011;9635;52.078;8.648;2022-12-07T07:33:36;20.40;;;10.35;;
19004;SDS011;9635;52.078;8.648;2022-12-07T07:38:40;24.33;;;12.63;;
19004;SDS011;9635;52.078;8.648;2022-12-07T07:43:43;23.48;;;10.18;;
19004;SDS011;9635;52.078;8.648;2022-12-07T07:48:46;28.45;;;10.65;;
19004;SDS011;9635;52.078;8.648;2022-12-07T07:53:50;18.88;;;8.65;;
19004;SDS011;9635;52.078;8.648;2022-12-07T07:58:53;18.25;;;8.05;;
19004;SDS011;9635;52.078;8.648;2022-12-07T08:03:55;18.10;;;8.05;;
19004;SDS011;9635;52.078;8.648;2022-12-07T08:09:00;12.25;;;6.22;;
19004;SDS011;9635;52.078;8.648;2022-12-07T08:14:02;18.40;;;8.68;;
19004;SDS011;9635;52.078;8.648;2022-12-07T08:19:05;20.50;;;9.63;;
19004;SDS011;9635;52.078;8.648;2022-12-07T08:24:10;17.25;;;7.53;;
19004;SDS011;9635;52.078;8.648;2022-12-07T08:29:13;20.60;;;9.73;;
19004;SDS011;9635;52.078;8.648;2022-12-07T08:34:15;13.38;;;7.43;;
19004;SDS011;9635;52.078;8.648;2022-12-07T08:39:20;18.88;;;6.57;;
19004;SDS011;9635;52.078;8.648;2022-12-07T08:44:32;12.15;;;6.85;;
19004;SDS011;9635;52.078;8.648;2022-12-07T08:49:36;9.82;;;4.82;;
19004;SDS011;9635;52.078;8.648;2022-12-07T08:54:43;22.02;;;7.35;;
19004;SDS011;9635;52.078;8.648;2022-12-07T08:59:46;15.30;;;6.82;;
19004;SDS011;9635;52.078;8.648;2022-12-07T09:04:49;10.75;;;5.80;;
19004;SDS011;9635;52.078;8.648;2022-12-07T09:09:53;11.68;;;4.82;;
19004;SDS011;9635;52.078;8.648;2022-12-07T09:14:57;14.65;;;5.40;;
19004;SDS011;9635;52.078;8.648;2022-12-07T09:20:02;16.00;;;6.25;;
19004;SDS011;9635;52.078;8.648;2022-12-07T09:25:08;12.77;;;6.50;;
19004;SDS011;9635;52.078;8.648;2022-12-07T09:30:11;13.13;;;5.32;;
19004;SDS011;9635;52.078;8.648;2022-12-07T09:35:14;14.13;;;5.68;;
19004;SDS011;9635;52.078;8.648;2022-12-07T09:40:19;11.45;;;6.40;;
19004;SDS011;9635;52.078;8.648;2022-12-07T09:45:24;10.38;;;4.25;;
19004;SDS011;9635;52.078;8.648;2022-12-07T09:50:32;10.10;;;4.78;;
19004;SDS011;9635;52.078;8.648;2022-12-07T09:55:37;11.65;;;4.60;;
19004;SDS011;9635;52.078;8.648;2022-12-07T10:00:43;13.25;;;4.53;;
19004;SDS011;9635;52.078;8.648;2022-12-07T10:05:47;7.65;;;3.85;;
19004;SDS011;9635;52.078;8.648;2022-12-07T10:10:54;12.30;;;5.00;;
19004;SDS011;9635;52.078;8.648;2022-12-07T10:15:58;14.45;;;5.75;;
19004;SDS011;9635;52.078;8.648;2022-12-07T10:21:11;10.02;;;3.95;;
19004;SDS011;9635;52.078;8.648;2022-12-07T10:26:26;7.90;;;4.55;;
19004;SDS011;9635;52.078;8.648;2022-12-07T10:31:31;9.60;;;4.60;;
19004;SDS011;9635;52.078;8.648;2022-12-07T10:36:35;15.98;;;5.35;;
19004;SDS011;9635;52.078;8.648;2022-12-07T10:41:53;12.88;;;4.35;;
19004;SDS011;9635;52.078;8.648;2022-12-07T10:47:05;7.40;;;3.53;;
19004;SDS011;9635;52.078;8.648;2022-12-07T10:52:19;8.95;;;3.47;;
19004;SDS011;9635;52.078;8.648;2022-12-07T10:57:39;4.63;;;2.88;;
19004;SDS011;9635;52.078;8.648;2022-12-07T11:02:54;8.50;;;3.55;;
19004;SDS011;9635;52.078;8.648;2022-12-07T11:08:13;15.40;;;5.00;;
19004;SDS011;9635;52.078;8.648;2022-12-07T11:13:27;11.40;;;4.22;;
19004;SDS011;9635;52.078;8.648;2022-12-07T11:18:39;8.25;;;3.70;;
19004;SDS011;9635;52.078;8.648;2022-12-07T11:23:53;13.38;;;3.83;;
19004;SDS011;9635;52.078;8.648;2022-12-07T11:29:09;15.93;;;3.83;;
19004;SDS011;9635;52.078;8.648;2022-12-07T11:34:37;8.40;;;3.23;;
19004;SDS011;9635;52.078;8.648;2022-12-07T11:39:49;9.13;;;3.17;;
19004;SDS011;9635;52.078;8.648;2022-12-07T11:44:56;7.80;;;3.47;;
19004;SDS011;9635;52.078;8.648;2022-12-07T11:50:22;9.32;;;2.30;;
19004;SDS011;9635;52.078;8.648;2022-12-07T11:55:30;4.93;;;2.47;;
19004;SDS011;9635;52.078;8.648;2022-12-07T12:00:43;5.13;;;2.10;;
19004;SDS011;9635;52.078;8.648;2022-12-07T12:05:46;7.82;;;2.22;;
19004;SDS011;9635;52.078;8.648;2022-12-07T12:10:53;2.83;;;1.63;;
19004;SDS011;9635;52.078;8.648;2022-12-07T12:16:08;8.13;;;2.70;;
19004;SDS011;9635;52.078;8.648;2022-12-07T12:21:25;6.70;;;1.90;;
19004;SDS011;9635;52.078;8.648;2022-12-07T12:26:31;5.13;;;2.22;;
19004;SDS011;9635;52.078;8.648;2022-12-07T12:31:37;9.80;;;2.17;;
19004;SDS011;9635;52.078;8.648;2022-12-07T12:36:43;8.10;;;1.90;;
19004;SDS011;9635;52.078;8.648;2022-12-07T12:41:54;5.68;;;1.83;;
19004;SDS011;9635;52.078;8.648;2022-12-07T12:52:50;5.10;;;1.60;;
19004;SDS011;9635;52.078;8.648;2022-12-07T13:03:32;4.47;;;1.50;;
19004;SDS011;9635;52.078;8.648;2022-12-07T13:08:37;7.18;;;1.92;;
19004;SDS011;9635;52.078;8.648;2022-12-07T13:13:44;9.68;;;2.40;;
19004;SDS011;9635;52.078;8.648;2022-12-07T13:18:46;7.60;;;1.75;;
19004;SDS011;9635;52.078;8.648;2022-12-07T13:23:55;9.63;;;2.10;;
19004;SDS011;9635;52.078;8.648;2022-12-07T13:29:05;7.60;;;2.10;;
19004;SDS011;9635;52.078;8.648;2022-12-07T13:39:45;7.28;;;1.73;;
19004;SDS011;9635;52.078;8.648;2022-12-07T13:44:50;10.43;;;2.15;;
19004;SDS011;9635;52.078;8.648;2022-12-07T13:49:53;9.48;;;1.67;;
19004;SDS011;9635;52.078;8.648;2022-12-07T13:54:59;11.23;;;2.15;;
19004;SDS011;9635;52.078;8.648;2022-12-07T14:00:04;7.75;;;2.20;;
19004;SDS011;9635;52.078;8.648;2022-12-07T14:05:22;10.93;;;2.43;;
19004;SDS011;9635;52.078;8.648;2022-12-07T14:10:28;5.45;;;1.83;;
19004;SDS011;9635;52.078;8.648;2022-12-07T14:15:33;6.63;;;1.90;;
19004;SDS011;9635;52.078;8.648;2022-12-07T14:20:37;9.77;;;2.42;;
19004;SDS011;9635;52.078;8.648;2022-12-07T14:25:46;8.48;;;3.50;;
19004;SDS011;9635;52.078;8.648;2022-12-07T14:30:52;6.93;;;1.90;;
19004;SDS011;9635;52.078;8.648;2022-12-07T14:35:55;13.45;;;3.00;;
19004;SDS011;9635;52.078;8.648;2022-12-07T14:41:00;9.00;;;2.20;;
19004;SDS011;9635;52.078;8.648;2022-12-07T14:46:17;7.10;;;2.00;;
19004;SDS011;9635;52.078;8.648;2022-12-07T14:51:20;7.90;;;2.25;;
19004;SDS011;9635;52.078;8.648;2022-12-07T15:01:50;11.52;;;2.03;;
19004;SDS011;9635;52.078;8.648;2022-12-07T15:06:56;11.20;;;2.47;;
19004;SDS011;9635;52.078;8.648;2022-12-07T15:12:00;10.55;;;2.78;;
19004;SDS011;9635;52.078;8.648;2022-12-07T15:17:03;8.07;;;1.98;;
19004;SDS011;9635;52.078;8.648;2022-12-07T15:22:11;11.85;;;2.30;;
19004;SDS011;9635;52.078;8.648;2022-12-07T15:27:15;10.00;;;2.50;;
19004;SDS011;9635;52.078;8.648;2022-12-07T15:32:18;13.25;;;1.92;;
19004;SDS011;9635;52.078;8.648;2022-12-07T15:37:24;9.50;;;1.95;;
19004;SDS011;9635;52.078;8.648;2022-12-07T15:42:33;6.50;;;2.30;;
19004;SDS011;9635;52.078;8.648;2022-12-07T15:47:40;8.35;;;2.55;;
19004;SDS011;9635;52.078;8.648;2022-12-07T15:53:08;12.57;;;3.00;;
19004;SDS011;9635;52.078;8.648;2022-12-07T15:58:16;16.77;;;2.67;;
19004;SDS011;9635;52.078;8.648;2022-12-07T16:03:25;6.10;;;2.13;;
19004;SDS011;9635;52.078;8.648;2022-12-07T16:08:50;5.18;;;1.02;;
19004;SDS011;9635;52.078;8.648;2022-12-07T16:13:56;4.70;;;0.40;;
19004;SDS011;9635;52.078;8.648;2022-12-07T16:19:04;3.75;;;0.80;;
19004;SDS011;9635;52.078;8.648;2022-12-07T16:24:12;4.72;;;0.98;;
19004;SDS011;9635;52.078;8.648;2022-12-07T16:29:18;1.65;;;0.63;;
19004;SDS011;9635;52.078;8.648;2022-12-07T16:34:22;3.38;;;1.10;;
19004;SDS011;9635;52.078;8.648;2022-12-07T16:39:25;6.85;;;1.30;;
19004;SDS011;9635;52.078;8.648;2022-12-07T16:44:29;4.72;;;1.50;;
19004;SDS011;9635;52.078;8.648;2022-12-07T16:49:33;3.83;;;1.67;;
19004;SDS011;9635;52.078;8.648;2022-12-07T16:54:36;5.30;;;1.35;;
19004;SDS011;9635;52.078;8.648;2022-12-07T16:59:40;4.03;;;1.20;;
19004;SDS011;9635;52.078;8.648;2022-12-07T17:04:43;7.47;;;1.73;;
19004;SDS011;9635;52.078;8.648;2022-12-07T17:09:45;7.75;;;1.95;;
19004;SDS011;9635;52.078;8.648;2022-12-07T17:14:50;2.65;;;1.80;;
19004;SDS011;9635;52.078;8.648;2022-12-07T17:20:10;3.65;;;2.78;;
19004;SDS011;9635;52.078;8.648;2022-12-07T17:25:14;6.80;;;3.53;;
19004;SDS011;9635;52.078;8.648;2022-12-07T17:30:18;8.80;;;3.58;;
19004;SDS011;9635;52.078;8.648;2022-12-07T17:35:21;9.52;;;3.75;;
19004;SDS011;9635;52.078;8.648;2022-12-07T17:40:24;7.40;;;3.90;;
19004;SDS011;9635;52.078;8.648;2022-12-07T17:45:29;8.68;;;3.90;;
19004;SDS011;9635;52.078;8.648;2022-12-07T17:50:32;11.80;;;5.20;;
19004;SDS011;9635;52.078;8.648;2022-12-07T17:55:52;6.18;;;3.92;;
19004;SDS011;9635;52.078;8.648;2022-12-07T18:01:17;13.50;;;4.55;;
19004;SDS011;9635;52.078;8.648;2022-12-07T18:06:24;13.32;;;5.85;;
19004;SDS011;9635;52.078;8.648;2022-12-07T18:11:27;14.70;;;5.00;;
19004;SDS011;9635;52.078;8.648;2022-12-07T18:16:33;11.93;;;5.28;;
19004;SDS011;9635;52.078;8.648;2022-12-07T18:21:36;14.35;;;6.15;;
19004;SDS011;9635;52.078;8.648;2022-12-07T18:26:39;8.98;;;4.85;;
19004;SDS011;9635;52.078;8.648;2022-12-07T18:31:44;3.78;;;1.92;;
19004;SDS011;9635;52.078;8.648;2022-12-07T18:36:48;10.07;;;3.80;;
19004;SDS011;9635;52.078;8.648;2022-12-07T18:41:51;4.15;;;2.75;;
19004;SDS011;9635;52.078;8.648;2022-12-07T18:46:55;9.18;;;3.65;;
19004;SDS011;9635;52.078;8.648;2022-12-07T18:51:58;5.32;;;3.28;;
19004;SDS011;9635;52.078;8.648;2022-12-07T18:57:01;7.55;;;3.58;;
19004;SDS011;9635;52.078;8.648;2022-12-07T19:02:05;7.82;;;5.07;;
19004;SDS011;9635;52.078;8.648;2022-12-07T19:07:08;10.70;;;4.05;;
19004;SDS011;9635;52.078;8.648;2022-12-07T19:12:12;8.07;;;5.28;;
19004;SDS011;9635;52.078;8.648;2022-12-07T19:17:16;12.75;;;5.07;;
19004;SDS011;9635;52.078;8.648;2022-12-07T19:22:20;14.50;;;5.28;;
19004;SDS011;9635;52.078;8.648;2022-12-07T19:27:23;9.80;;;5.25;;
19004;SDS011;9635;52.078;8.648;2022-12-07T19:32:29;16.85;;;5.82;;
19004;SDS011;9635;52.078;8.648;2022-12-07T19:37:31;15.77;;;6.82;;
19004;SDS011;9635;52.078;8.648;2022-12-07T19:42:34;10.43;;;6.93;;
19004;SDS011;9635;52.078;8.648;2022-12-07T19:47:38;13.23;;;7.68;;
19004;SDS011;9635;52.078;8.648;2022-12-07T19:52:41;19.02;;;9.77;;
19004;SDS011;9635;52.078;8.648;2022-12-07T19:57:44;13.55;;;9.88;;
19004;SDS011;9635;52.078;8.648;2022-12-07T20:02:51;23.52;;;11.65;;
19004;SDS011;9635;52.078;8.648;2022-12-07T20:07:54;19.67;;;11.50;;
19004;SDS011;9635;52.078;8.648;2022-12-07T20:12:57;22.17;;;14.40;;
19004;SDS011;9635;52.078;8.648;2022-12-07T20:18:18;26.15;;;13.45;;
19004;SDS011;9635;52.078;8.648;2022-12-07T20:23:21;21.05;;;12.48;;
19004;SDS011;9635;52.078;8.648;2022-12-07T20:28:24;23.02;;;12.23;;
19004;SDS011;9635;52.078;8.648;2022-12-07T20:33:28;25.17;;;12.65;;
19004;SDS011;9635;52.078;8.648;2022-12-07T20:38:32;27.75;;;14.77;;
19004;SDS011;9635;52.078;8.648;2022-12-07T20:43:34;25.25;;;13.95;;
19004;SDS011;9635;52.078;8.648;2022-12-07T20:48:39;24.40;;;13.38;;
19004;SDS011;9635;52.078;8.648;2022-12-07T20:53:41;16.38;;;11.13;;
19004;SDS011;9635;52.078;8.648;2022-12-07T20:58:44;22.15;;;12.75;;
19004;SDS011;9635;52.078;8.648;2022-12-07T21:03:48;24.85;;;11.70;;
19004;SDS011;9635;52.078;8.648;2022-12-07T21:08:52;16.30;;;11.60;;
19004;SDS011;9635;52.078;8.648;2022-12-07T21:13:56;21.90;;;14.02;;
19004;SDS011;9635;52.078;8.648;2022-12-07T21:19:01;23.35;;;13.55;;
19004;SDS011;9635;52.078;8.648;2022-12-07T21:24:04;25.13;;;10.95;;
19004;SDS011;9635;52.078;8.648;2022-12-07T21:29:08;20.45;;;12.77;;
19004;SDS011;9635;52.078;8.648;2022-12-07T21:34:12;25.08;;;12.15;;
19004;SDS011;9635;52.078;8.648;2022-12-07T21:39:15;19.50;;;11.60;;
19004;SDS011;9635;52.078;8.648;2022-12-07T21:44:18;27.73;;;15.40;;
19004;SDS011;9635;52.078;8.648;2022-12-07T21:49:22;25.90;;;13.00;;
19004;SDS011;9635;52.078;8.648;2022-12-07T21:54:25;22.10;;;11.95;;
19004;SDS011;9635;52.078;8.648;2022-12-07T21:59:28;27.48;;;15.43;;
19004;SDS011;9635;52.078;8.648;2022-12-07T22:04:35;23.90;;;14.70;;
19004;SDS011;9635;52.078;8.648;2022-12-07T22:09:39;19.95;;;11.10;;
19004;SDS011;9635;52.078;8.648;2022-12-07T22:14:42;17.75;;;11.13;;
19004;SDS011;9635;52.078;8.648;2022-12-07T22:20:05;22.55;;;11.48;;
19004;SDS011;9635;52.078;8.648;2022-12-07T22:25:09;21.08;;;12.18;;
19004;SDS011;9635;52.078;8.648;2022-12-07T22:30:13;25.63;;;15.18;;
19004;SDS011;9635;52.078;8.648;2022-12-07T22:35:18;23.80;;;9.57;;
19004;SDS011;9635;52.078;8.648;2022-12-07T22:40:20;20.60;;;13.07;;
19004;SDS011;9635;52.078;8.648;2022-12-07T22:45:23;22.75;;;13.98;;
19004;SDS011;9635;52.078;8.648;2022-12-07T22:50:27;19.85;;;12.45;;
19004;SDS011;9635;52.078;8.648;2022-12-07T22:55:30;18.75;;;12.32;;
19004;SDS011;9635;52.078;8.648;2022-12-07T23:00:33;26.60;;;12.85;;
19004;SDS011;9635;52.078;8.648;2022-12-07T23:05:40;18.02;;;8.40;;
19004;SDS011;9635;52.078;8.648;2022-12-07T23:10:44;26.75;;;14.10;;
19004;SDS011;9635;52.078;8.648;2022-12-07T23:15:49;23.35;;;13.50;;
19004;SDS011;9635;52.078;8.648;2022-12-07T23:20:55;24.52;;;13.23;;
19004;SDS011;9635;52.078;8.648;2022-12-07T23:26:00;24.05;;;15.80;;
19004;SDS011;9635;52.078;8.648;2022-12-07T23:31:04;21.23;;;13.05;;
19004;SDS011;9635;52.078;8.648;2022-12-07T23:36:12;14.25;;;9.48;;
19004;SDS011;9635;52.078;8.648;2022-12-07T23:41:18;26.20;;;15.30;;
19004;SDS011;9635;52.078;8.648;2022-12-07T23:46:23;20.52;;;13.27;;
19004;SDS011;9635;52.078;8.648;2022-12-07T23:51:29;19.95;;;11.43;;
19004;SDS011;9635;52.078;8.648;2022-12-07T23:56:32;31.13;;;16.05;;
